Latest Coastal Weather Observations for Warruwi

IDD60701

Issued at 7:45 am CST Thursday 24 April 2014 (issued every 10 minutes, with the page automatically refreshed every 10 minutes)

About coastal observations | Map of coastal stations | Coastal observations for NT | Marine services | Other Formats
Station Details ID: 014401 Name: WARRUWI AIRPORT Lat: -11.65 Lon: 133.38 Height: 19.2 m
Data from the previous 72 hours. | See also: Recent months at Warruwi
Date/Time
CST
Temp

°C
Wind Pressure Rain
since 9am
mm
Weather Cloud Vis
km
Sea
Height
m
Swell
Dir
 
Speed
knots
Gust
knots
hPa Trend Height
m
Period
s
Dir
24/07:30am 25.7 SSE 8 13 1007.4 - 2.6 - - - - - - -
24/07:00am 25.7 SE 9 12 1007.3 - 2.6 - - - - - - -
24/06:30am 25.6 SE 9 12 1006.4 - 2.6 - - - - - - -
24/06:00am 25.8 SE 10 17 1005.7 - 2.6 - - - - - - -
24/05:30am 25.9 SE 10 16 1005.2 - 2.6 - - - - - - -
24/05:00am 25.7 SE 9 13 1005.4 - 2.6 - - - - - - -
24/04:30am 25.6 SSE 8 13 1005.4 - 2.6 - - - - - - -
24/04:00am 25.6 SSE 9 14 1005.7 - 2.6 - - - - - - -
24/03:30am 25.9 SE 9 13 1005.3 - 2.6 - - - - - - -
24/03:00am 25.9 SE 7 10 1005.0 - 2.6 - - - - - - -
24/02:30am 26.1 SE 8 13 1005.4 - 2.6 - - - - - - -
24/02:00am 26.0 SSE 9 15 1006.0 - 2.6 - - - - - - -
24/01:30am 26.0 SSE 9 16 1006.5 - 2.6 - - - - - - -
24/01:00am 26.4 SSE 9 14 1007.4 - 2.6 - - - - - - -
24/12:30am 26.3 S 7 13 1007.4 - 2.6 - - - - - - -
24/12:00am 26.2 SSE 6 11 1007.8 - 2.6 - - - - - - -
 
Date/Time
CST
Temp

°C
Wind Pressure Rain
since 9am
mm
Weather Cloud Vis
km
Sea
Height
m
Swell
Dir
 
Speed
knots
Gust
knots
hPa Trend Height
m
Period
s
Dir
23/11:30pm 26.4 S 7 11 1008.2 - 2.6 - - - - - - -
23/11:00pm 26.7 SSE 6 9 1008.3 - 2.6 - - - - - - -
23/10:30pm 27.1 SE 7 11 1008.4 - 2.6 - - - - - - -
23/10:00pm 27.1 SE 8 12 1008.7 - 2.6 - - - - - - -
23/09:30pm 26.9 SE 6 10 1008.9 - 2.6 - - - - - - -
23/09:00pm 26.9 SE 6 8 1008.6 - 2.6 - - - - - - -
23/08:30pm 27.2 SE 7 11 1008.2 - 2.6 - - - - - - -
23/08:00pm 27.0 ESE 5 7 1007.4 - 2.6 - - - - - - -
23/07:30pm 26.7 E 4 6 1006.7 - 2.6 - - - - - - -
23/07:00pm 26.4 E 5 8 1006.5 - 2.6 - - - - - - -
23/06:30pm 26.9 ESE 5 6 1006.1 - 2.6 - - - - - - -
23/06:00pm 27.1 E 4 7 1006.9 - 2.6 - - - - - - -
23/05:30pm 27.1 E 6 8 1006.7 - 2.6 - - - - - - -
23/05:00pm 27.4 E 6 9 1006.5 - 2.6 - - - - - - -
23/04:30pm 27.6 E 5 7 1006.3 - 2.6 - - - - - - -
23/04:00pm 28.6 E 6 10 1006.3 - 2.6 - - - - - - -
23/03:30pm 29.0 E 5 7 1006.0 - 2.6 - - - - - - -
23/03:00pm 29.4 NE 5 11 1006.1 - 2.6 - - - - - - -
23/02:30pm 29.3 ENE 5 7 1006.6 - 2.6 - - - - - - -
23/02:00pm 28.2 NE 4 8 1007.1 - 2.6 - - - - - - -
23/01:30pm 27.3 ENE 2 4 1007.2 - 2.6 - - - - - - -
23/01:00pm 26.7 NNE 5 11 1008.2 - 2.2 - - - - - - -
23/12:30pm 27.8 E 6 9 1008.1 - 0.8 - - - - - - -
23/12:00pm 26.4 NE 3 5 1008.6 - 0.8 Rain - - - - - -
23/11:30am 26.7 ENE 7 13 1009.0 - 0.0 - - - - - - -
23/11:00am 30.0 E 8 11 1009.3 - 0.0 - - - - - - -
23/10:30am 29.3 ESE 9 13 1009.4 - 0.0 - - - - - - -
23/10:00am 28.6 ESE 9 14 1010.0 - 0.0 - - - - - - -
23/09:30am 28.8 ESE 9 12 1009.9 - 0.0 - - - - - - -
23/09:00am 28.1 SE 8 11 1009.5 - 5.4 - - - - - - -
23/08:30am 27.8 SE 5 9 1009.3 - 5.4 - - - - - - -
23/08:00am 26.9 SE 6 8 1009.1 - 5.4 - - - - - - -
23/07:30am 26.4 SE 6 7 1008.9 - 5.4 - - - - - - -
23/07:00am 26.3 ESE 6 8 1008.8 - 5.4 - - - - - - -
23/06:30am 26.4 ESE 5 7 1008.3 - 5.4 - - - - - - -
23/06:00am 26.1 E 2 3 1008.1 - 5.4 - - - - - - -
23/05:30am 26.3 ENE 3 5 1007.9 - 5.4 - - - - - - -
23/05:00am 26.1 E 5 6 1008.1 - 5.4 - - - - - - -
23/04:30am 26.1 ESE 6 8 1008.0 - 5.4 - - - - - - -
23/04:00am 25.9 ESE 6 8 1008.3 - 5.4 - - - - - - -
23/03:30am 25.9 ESE 5 8 1008.1 - 5.4 - - - - - - -
23/03:00am 26.1 ESE 6 9 1008.4 - 5.4 - - - - - - -
23/02:30am 26.5 SE 5 7 1008.5 - 5.4 - - - - - - -
23/02:00am 26.5 ESE 7 11 1008.7 - 5.4 - - - - - - -
23/01:30am 26.5 SE 8 13 1008.3 - 5.4 - - - - - - -
23/01:00am 26.2 SE 10 14 1008.9 - 5.4 - - - - - - -
23/12:30am 26.1 ESE 10 14 1009.3 - 5.4 - - - - - - -
23/12:00am 26.0 SE 9 13 1009.9 - 5.4 - - - - - - -
 
Date/Time
CST
Temp

°C
Wind Pressure Rain
since 9am
mm
Weather Cloud Vis
km
Sea
Height
m
Swell
Dir
 
Speed
knots
Gust
knots
hPa Trend Height
m
Period
s
Dir
22/11:30pm 26.1 ESE 10 15 1010.1 - 5.4 - - - - - - -
22/11:00pm 25.9 ESE 11 17 1010.5 - 5.4 - - - - - - -
22/10:30pm 26.0 SE 10 15 1010.2 - 5.2 - - - - - - -
22/10:00pm 26.2 ESE 9 14 1010.7 - 5.2 - - - - - - -
22/09:30pm 25.8 ESE 7 10 1010.3 - 5.2 - - - - - - -
22/09:00pm 25.7 ESE 7 11 1010.2 - 5.2 Recent precip. - - - - - -
22/08:30pm 25.3 ESE 6 10 1010.0 - 4.8 - - - - - - -
22/08:00pm 25.1 E 12 17 1010.1 - 2.0 - - - - - - -
22/07:30pm 25.1 ESE 12 17 1009.5 - 0.8 - - - - - - -
22/07:00pm 25.5 SE 9 16 1009.5 - 0.4 - - - - - - -
22/06:30pm 26.9 E 15 22 1008.7 - 0.2 - - - - - - -
22/06:00pm 26.8 ESE 12 17 1008.0 - 0.2 Rain - - - - - -
22/05:30pm 28.8 E 9 17 1007.5 - 0.0 - - - - - - -
22/05:00pm 30.2 E 7 11 1007.2 - 0.0 - - - - - - -
22/04:30pm 30.4 ENE 7 12 1006.7 - 0.0 - - - - - - -
22/04:00pm 30.8 E 7 10 1006.8 - 0.0 - - - - - - -
22/03:30pm 30.8 E 6 10 1006.5 - 0.0 - - - - - - -
22/03:00pm 30.8 E 8 13 1006.7 - 0.0 - - - - - - -
22/02:30pm 31.1 E 9 13 1006.8 - 0.0 - - - - - - -
22/02:00pm 32.1 E 11 15 1007.3 - 0.0 - - - - - - -
22/01:30pm 31.6 E 9 14 1007.6 - 0.0 - - - - - - -
22/01:00pm 31.4 ESE 9 12 1008.1 - 0.0 - - - - - - -
22/12:30pm 31.2 ESE 9 13 1008.4 - 0.0 - - - - - - -
22/12:00pm 31.0 ESE 12 16 1009.2 - 0.0 - - - - - - -
22/11:30am 30.8 SE 11 17 1009.7 - 0.0 - - - - - - -
22/11:00am 30.2 SE 14 19 1010.4 - 0.0 - - - - - - -
22/10:30am 30.4 ESE 12 17 1010.8 - 0.0 - - - - - - -
22/10:00am 29.6 ESE 13 18 1011.5 - 0.0 - - - - - - -
22/09:30am 28.3 ESE 11 16 1011.5 - 0.0 - - - - - - -
22/09:00am 28.5 SE 11 17 1011.1 - 0.0 - - - - - - -
22/08:30am 27.6 SE 10 15 1011.0 - 0.0 - - - - - - -
22/08:00am 27.6 SE 10 14 1010.8 - 0.0 - - - - - - -
22/07:30am 26.6 SE 10 16 1010.4 - 0.0 - - - - - - -
22/07:00am 26.4 SE 10 13 1010.4 - 0.0 - - - - - - -
22/06:30am 26.3 SE 10 14 1009.8 - 0.0 - - - - - - -
22/06:00am 26.3 SE 10 19 1009.5 - 0.0 - - - - - - -
22/05:30am 26.4 SE 9 13 1009.3 - 0.0 - - - - - - -
22/05:00am 26.4 SE 9 13 1009.3 - 0.0 - - - - - - -
22/04:30am 26.5 SE 11 16 1009.2 - 0.0 - - - - - - -
22/04:00am 26.6 SE 9 14 1009.3 - 0.0 - - - - - - -
22/03:30am 26.8 ESE 10 15 1009.1 - 0.0 - - - - - - -
22/03:00am 26.8 SE 8 13 1009.2 - 0.0 - - - - - - -
22/02:30am 27.0 SE 10 14 1009.2 - 0.0 - - - - - - -
22/02:00am 27.3 ESE 11 17 1009.5 - 0.0 - - - - - - -
22/01:30am 27.4 ESE 10 14 1009.6 - 0.0 - - - - - - -
22/01:00am 27.5 ESE 11 16 1010.1 - 0.0 - - - - - - -
22/12:30am 27.2 SE 9 14 1010.2 - 0.0 - - - - - - -
22/12:00am 27.1 SE 6 9 1010.3 - 0.0 - - - - - - -
 
Date/Time
CST
Temp

°C
Wind Pressure Rain
since 9am
mm
Weather Cloud Vis
km
Sea
Height
m
Swell
Dir
 
Speed
knots
Gust
knots
hPa Trend Height
m
Period
s
Dir
21/11:30pm 27.1 SE 5 8 1010.5 - 0.0 - - - - - - -
21/11:00pm 27.0 SE 5 7 1010.7 - 0.0 - - - - - - -
21/10:30pm 26.8 SSE 4 6 1010.6 - 0.0 - - - - - - -
21/10:00pm 27.1 SSE 4 7 1011.0 - 0.0 - - - - - - -
21/09:30pm 27.1 SE 4 6 1010.8 - 0.0 - - - - - - -
21/09:00pm 27.3 SSE 4 6 1010.7 - 0.0 - - - - - - -
21/08:30pm 27.5 SE 6 8 1010.5 - 0.0 - - - - - - -
21/08:00pm 27.7 SE 6 8 1010.7 - 0.0 - - - - - - -
21/07:30pm 27.9 ESE 7 8 1009.9 - 0.0 - - - - - - -
21/07:00pm 28.0 ESE 8 11 1009.9 - 0.0 - - - - - - -
21/06:30pm 28.2 ESE 8 13 1009.3 - 0.0 - - - - - - -
21/06:00pm 29.0 ESE 5 7 1009.3 - 0.0 - - - - - - -
21/05:30pm 29.3 ESE 7 9 1009.2 - 0.0 - - - - - - -
21/05:00pm 29.7 SE 8 11 1009.1 - 0.0 - - - - - - -
21/04:30pm 30.1 E 11 15 1008.6 - 0.0 - - - - - - -
21/04:00pm 29.9 E 12 16 1008.5 - 0.0 - - - - - - -
21/03:30pm 30.3 E 12 17 1008.4 - 0.0 - - - - - - -
21/03:00pm 30.8 E 12 17 1008.6 - 0.0 - - - - - - -
21/02:30pm 30.4 E 13 18 1008.8 - 0.0 - - - - - - -
21/02:00pm 30.7 E 14 19 1009.0 - 0.0 - - - - - - -
21/01:30pm 30.7 E 13 17 1009.2 - 0.0 - - - - - - -
21/01:00pm 30.7 E 13 18 1009.3 - 0.0 - - - - - - -
21/12:30pm 30.9 E 13 20 1009.3 - 0.0 - - - - - - -
21/12:00pm 30.6 ESE 15 21 1009.8 - 0.0 - - - - - - -
21/11:30am 30.7 E 13 19 1010.3 - 0.0 - - - - - - -
21/11:00am 29.7 ESE 14 19 1011.1 - 0.0 - - - - - - -
21/10:30am 29.4 E 14 19 1011.1 - 0.0 - - - - - - -
21/10:00am 28.8 ESE 14 19 1011.4 - 0.0 - - - - - - -
21/09:30am 28.1 ESE 14 20 1011.0 - 0.0 - - - - - - -
21/09:00am 27.7 ESE 12 17 1010.8 - 7.2 - - - - - - -
21/08:30am 27.1 ESE 13 19 1010.5 - 7.2 - - - - - - -
21/08:00am 26.8 ESE 11 15 1010.4 - 7.2 - - - - - - -

Other Formats:

Comma delimited format used in spreadsheet applications
http://www.bom.gov.au/fwo/IDD60701/IDD60701.94139.axf

JavaScript Object Notation format (JSON) in row-major order
http://www.bom.gov.au/fwo/IDD60701/IDD60701.94139.json